Airfield :
LOGIN :

Register | Disclaimer

   EN    FR    IT 

 










Legend :    VFR   Marginal VFR   IFR   Intensive IFR   Very Intensive IFR
Visi :
Ceiling :
>= 8 km
>= 3000ft
5 to 8 km
1000 to 3000 ft
1500m to 5 km
500 to 1000 ft
800 to 1500m
200 to 500 ft
< 800m
< 200 ft
Symbols :   Thunderstorms  Fog  Heavy snow  Heavy precipitations  Wind > 20 kt
SIGMETs :     Misc.  Thunderstorms  Icing  Turbulence  Mountain Waves  Volcanic Ashes






- Airport Elevation : 288 ft
- IATA code : BZZ


EGVN - RAF Brize Norton

CURRENT METAR :
  • 240920Z 13007KT 1500 SN OVC003 M00/M01 Q0994 BECMG 3000 -SN OVC004 RMK BLACKAMB BECMG YLO2

EXPIRED METARs :
  • 240850Z 11008KT 1500 SN OVC002 M01/M01 Q0994 RESN TEMPO 4000 -SN RMK BLACKAMB TEMPO AMB
  • 240820Z 10008KT 0400 +SN OVC004 M01/M01 Q0995 TEMPO VV///
  • 240803Z 11008KT 0700 +SN OVC006 M01/M02 Q0995 TEMPO VV/// RMK RED TEMO RED
  • 240740Z 11007KT 3200 -SN OVC014 M01/M02 Q0995 TEMPO 1500 SN BKN004
  • 240650Z 08006KT 9999 FEW040 OVC070 M01/M02 Q0995 TEMPO 3000 SN BKN005

TAF TAF EGVN
Valid from the 24 at 06:00 until the 25 at 06:00 UTC


240440Z 2406/2506 17005KT 9999 BKN040
TEMPO 2406/2412 3000 SN BKN005
PROB30
TEMPO 2412/2416 4000 -SN BKN005
TEMPO 2416/2420 3000 SN BKN005



MET'MAP, your aeronautical weather chart ! - Copyright ORBIFLY December 2007 - Disclaimer

ORBIFLY MET'MAP TEAM :

Programming & Development : Alexandra Zaïnal
Concept & original design : Baudouin d'Aumeries
Assistance for programming : Marc-Olivier Méhu
Technical & hardware support : Manuel Goepfert

Contact : metmap@orbifly.com




SOURCES & CREDITS :

   NOAA